Skip Navigation Links Skip Navigation Links

Current Weather

Waukesha County, Waukesha, Wis.

For information only: do not use for flight planning or navigation.
Latest weather
Observation time Sunday, May 31, 2020 6:45 AM CDT
Local time Sunday, May 31, 2020 7:23 AM CDT
Flight conditions Visual Meteorological Conditions
Winds
Wind direction Southeast (140°)
Wind speed 5 mph
Visibility 10 mi.
Sky condition
Ceiling unlimited
Sky clear
Temperature 46°F
Dewpoint 36°F
Altimeter 30.37 in.Hg
Derived measurements
Relative humidity 66%
Wind chill 44°F
Density altitude -337 ft.
METAR KUES 311145Z 14004KT 10SM SKC 08/02 A3037

Settings

Location code

InnerDrive.Weather 4.0.6770.0 Release CLR 4.0.30319.42000
Copyright ©2018 Inner Drive Technology. All rights reserved. Portions Copyright ©1986-2018 David Braverman.

Find weather

Site navigation


Skip Navigation Links

Place info

Page info

PayPal - The safer, easier way to pay online!

Return home.

Copyright ©2020 Inner Drive Technology. Purveyors of fine, hand-crafted computer software. Page printed 2020-05-31T12:23:26 UTC.